Time;durP1;ratioP1;P1;durP2;ratioP2;P2;SDS_P1;SDS_P2;PMS_P1;PMS_P2;Temp;Humidity;BMP_temperature;BMP_pressure;BME280_temperature;BME280_humidity;BME280_pressure;Samples;Min_cycle;Max_cycle;Signal;HPM_P1;HPM_P2
2022/05/30 00:00:28;;;;;;;4.73;1.63;;;11.20;99.90;;;;;;4940301;29;20948;-75
2022/05/30 00:02:56;;;;;;;7.17;1.60;;;11.10;99.90;;;;;;4940089;28;20469;-76
2022/05/30 00:05:25;;;;;;;12.40;2.33;;;11.20;99.90;;;;;;4940253;28;20448;-75
2022/05/30 00:07:53;;;;;;;7.87;2.53;;;11.20;99.90;;;;;;4939763;29;20527;-75
2022/05/30 00:10:22;;;;;;;8.33;2.20;;;11.10;99.90;;;;;;4940334;28;20467;-75
2022/05/30 00:12:51;;;;;;;3.33;1.90;;;11.10;99.90;;;;;;4948434;28;20465;-75
2022/05/30 00:15:21;;;;;;;12.07;2.27;;;11.10;99.90;;;;;;4946038;29;20924;-76
2022/05/30 00:17:53;;;;;;;9.20;2.50;;;11.10;99.90;;;;;;4941896;28;20484;-75
2022/05/30 00:20:21;;;;;;;4.33;1.77;;;11.20;99.90;;;;;;4940567;29;20459;-75
2022/05/30 00:22:49;;;;;;;4.13;1.60;;;11.20;99.90;;;;;;4940054;28;21000;-76
2022/05/30 00:25:18;;;;;;;3.90;1.43;;;11.20;99.90;;;;;;4940938;29;20532;-76
2022/05/30 00:27:47;;;;;;;5.60;1.60;;;11.10;99.90;;;;;;4940606;28;20444;-75
2022/05/30 00:30:16;;;;;;;7.90;1.67;;;11.20;99.90;;;;;;4941469;28;20451;-78
2022/05/30 00:32:44;;;;;;;3.43;1.20;;;11.20;99.90;;;;;;4945739;28;20543;-80
2022/05/30 00:35:13;;;;;;;12.10;2.50;;;11.20;99.90;;;;;;4943754;28;20457;-74
2022/05/30 00:37:41;;;;;;;5.13;2.33;;;11.20;99.90;;;;;;4945841;28;20987;-73
2022/05/30 00:40:10;;;;;;;4.00;1.40;;;11.20;99.90;;;;;;4945522;28;20929;-77
2022/05/30 00:42:38;;;;;;;3.40;1.93;;;11.10;99.90;;;;;;4943811;29;20467;-76
2022/05/30 00:45:09;;;;;;;5.10;1.30;;;11.20;99.90;;;;;;4943599;29;20455;-77
2022/05/30 00:47:38;;;;;;;4.30;1.40;;;11.20;99.90;;;;;;4942315;28;20461;-76
2022/05/30 00:50:07;;;;;;;4.87;1.57;;;11.20;99.90;;;;;;4942466;28;21075;-76
2022/05/30 00:52:39;;;;;;;7.47;2.13;;;11.20;99.90;;;;;;4941968;28;20468;-76
2022/05/30 00:55:10;;;;;;;7.30;1.70;;;11.20;99.90;;;;;;4941842;28;20535;-76
2022/05/30 00:57:40;;;;;;;7.20;2.30;;;11.20;99.90;;;;;;4942093;28;20472;-77
2022/05/30 01:00:13;;;;;;;7.73;2.07;;;11.20;99.90;;;;;;4943370;28;20444;-77
2022/05/30 01:02:42;;;;;;;5.27;2.00;;;11.20;99.90;;;;;;4947020;28;20457;-78
2022/05/30 01:08:02;;;;;;;6.00;1.73;;;11.30;99.90;;;;;;4949398;29;20436;-76
2022/05/30 01:10:30;;;;;;;2.73;1.40;;;11.20;99.90;;;;;;4949247;29;20571;-79
2022/05/30 01:12:59;;;;;;;11.50;2.20;;;11.20;99.90;;;;;;4949248;28;20459;-78
2022/05/30 01:15:31;;;;;;;3.47;1.30;;;11.20;99.90;;;;;;4949068;28;20467;-78
2022/05/30 01:18:02;;;;;;;6.13;2.57;;;11.30;99.90;;;;;;4945150;29;21177;-78
2022/05/30 01:20:38;;;;;;;8.23;1.57;;;11.30;99.90;;;;;;4945210;29;20452;-77
2022/05/30 01:23:28;;;;;;;5.50;1.50;;;11.20;99.90;;;;;;4947464;29;20928;-78
2022/05/30 01:26:27;;;;;;;4.67;2.00;;;11.10;99.90;;;;;;4945595;28;20468;-78
2022/05/30 01:29:01;;;;;;;4.67;1.63;;;11.10;99.90;;;;;;4945768;29;20935;-78
2022/05/30 01:31:30;;;;;;;9.57;2.30;;;11.10;99.90;;;;;;4945560;28;20632;-78
2022/05/30 01:33:58;;;;;;;9.53;2.10;;;11.10;99.90;;;;;;4945897;28;20469;-78
2022/05/30 01:36:29;;;;;;;3.30;1.37;;;11.10;99.90;;;;;;4945000;29;20440;-78
2022/05/30 01:38:56;;;;;;;4.80;1.80;;;11.10;99.90;;;;;;4944144;29;20494;-78
2022/05/30 01:41:24;;;;;;;5.90;1.60;;;11.10;99.90;;;;;;4946525;29;20762;-79
2022/05/30 01:43:52;;;;;;;4.60;2.03;;;11.10;99.90;;;;;;4946698;29;20463;-78
2022/05/30 01:46:23;;;;;;;6.73;1.80;;;11.10;99.90;;;;;;4954070;28;20548;-80
2022/05/30 01:48:52;;;;;;;6.40;2.53;;;11.10;99.90;;;;;;4962292;29;20634;-80
2022/05/30 01:51:21;;;;;;;6.17;2.13;;;11.10;99.90;;;;;;4960628;28;20548;-79
2022/05/30 01:53:50;;;;;;;5.10;2.03;;;11.00;99.90;;;;;;4954511;29;21067;-79
2022/05/30 01:56:18;;;;;;;8.63;1.97;;;11.00;99.90;;;;;;4950861;29;20467;-79
2022/05/30 01:58:47;;;;;;;4.03;1.80;;;11.00;99.90;;;;;;4950568;28;20498;-78
2022/05/30 02:01:18;;;;;;;11.00;2.00;;;11.00;99.90;;;;;;4948854;29;20468;-79
2022/05/30 02:03:49;;;;;;;8.50;2.30;;;11.00;99.90;;;;;;4952357;28;20449;-80
2022/05/30 02:06:17;;;;;;;9.40;2.07;;;11.00;99.90;;;;;;4952685;28;20535;-80
2022/05/30 02:08:45;;;;;;;9.20;2.43;;;11.10;99.90;;;;;;4950846;28;20453;-78
2022/05/30 02:11:13;;;;;;;9.93;2.60;;;11.00;99.90;;;;;;4951066;28;20503;-78
2022/05/30 02:13:41;;;;;;;6.17;2.20;;;11.00;99.90;;;;;;4950580;29;20470;-79
2022/05/30 02:18:58;;;;;;;4.13;2.10;;;11.00;99.90;;;;;;4948415;28;20709;-79
2022/05/30 02:21:27;;;;;;;7.57;2.70;;;10.90;99.90;;;;;;4951394;29;20461;-79
2022/05/30 02:23:54;;;;;;;9.20;1.97;;;10.90;99.90;;;;;;4950489;28;20455;-79
2022/05/30 02:26:22;;;;;;;12.53;3.17;;;11.00;99.90;;;;;;4952855;28;20434;-78
2022/05/30 02:28:50;;;;;;;8.43;2.00;;;11.00;99.90;;;;;;4953143;29;20516;-77
2022/05/30 02:31:18;;;;;;;6.40;2.03;;;11.10;99.90;;;;;;4954500;28;20461;-77
2022/05/30 02:36:44;;;;;;;5.70;1.80;;;11.00;99.90;;;;;;4942002;29;20450;-77
2022/05/30 02:39:14;;;;;;;5.13;2.20;;;10.90;99.90;;;;;;4942026;28;20838;-76
2022/05/30 02:41:42;;;;;;;6.00;2.33;;;10.90;99.90;;;;;;4942416;28;20551;-77
2022/05/30 02:44:10;;;;;;;3.17;1.77;;;11.00;99.90;;;;;;4941981;28;20840;-77
2022/05/30 02:46:38;;;;;;;8.67;2.17;;;10.90;99.90;;;;;;4942008;29;20448;-76
2022/05/30 02:49:08;;;;;;;4.47;1.50;;;10.90;99.90;;;;;;4942360;28;20443;-77
2022/05/30 02:51:37;;;;;;;7.53;2.10;;;10.90;99.90;;;;;;4942539;29;20928;-77
2022/05/30 02:54:05;;;;;;;8.60;2.73;;;10.80;99.90;;;;;;4942776;28;20451;-77
2022/05/30 02:56:33;;;;;;;6.60;1.70;;;10.80;99.90;;;;;;4944921;28;20713;-77
2022/05/30 02:59:02;;;;;;;3.50;1.63;;;10.70;99.90;;;;;;4948978;29;20476;-78
2022/05/30 03:01:31;;;;;;;5.93;1.73;;;10.80;99.90;;;;;;4952346;28;20492;-79
2022/05/30 03:04:01;;;;;;;7.17;2.43;;;10.80;99.90;;;;;;4954233;29;20449;-77
2022/05/30 03:06:30;;;;;;;6.07;2.50;;;10.80;99.90;;;;;;4954506;29;21090;-77
2022/05/30 03:08:59;;;;;;;8.30;1.70;;;10.80;99.90;;;;;;4951894;29;20448;-78
2022/05/30 03:11:27;;;;;;;4.33;2.20;;;10.80;99.90;;;;;;4950486;29;20241;-78
2022/05/30 03:13:55;;;;;;;7.80;1.63;;;10.80;99.90;;;;;;4951062;29;20529;-79
2022/05/30 03:16:23;;;;;;;3.87;1.80;;;10.80;99.90;;;;;;4949497;29;20484;-77
2022/05/30 03:18:51;;;;;;;4.90;2.63;;;10.80;99.90;;;;;;4950017;28;20511;-79
2022/05/30 03:21:19;;;;;;;4.00;2.00;;;10.80;99.90;;;;;;4950646;28;20473;-79
2022/05/30 03:23:47;;;;;;;3.80;1.53;;;10.80;99.90;;;;;;4944907;28;20449;-79
2022/05/30 03:26:16;;;;;;;7.07;2.43;;;10.70;99.90;;;;;;4945816;28;20460;-79
2022/05/30 03:28:45;;;;;;;3.40;1.80;;;10.80;99.90;;;;;;4950759;28;20441;-78
2022/05/30 03:31:13;;;;;;;4.07;2.10;;;10.70;99.90;;;;;;4950370;29;20541;-78
2022/05/30 03:33:41;;;;;;;13.33;2.80;;;10.80;99.90;;;;;;4951399;28;20894;-81
2022/05/30 03:36:14;;;;;;;4.10;2.03;;;10.70;99.90;;;;;;4947027;29;20448;-77
2022/05/30 03:38:43;;;;;;;8.03;2.83;;;10.80;99.90;;;;;;4943751;29;20527;-78
2022/05/30 03:41:10;;;;;;;7.20;1.97;;;10.80;99.90;;;;;;4944331;28;20460;-77
2022/05/30 03:43:40;;;;;;;5.87;1.90;;;10.80;99.90;;;;;;4943869;29;20524;-78
2022/05/30 03:46:07;;;;;;;5.97;2.40;;;10.80;99.90;;;;;;4943559;29;20449;-78
2022/05/30 03:48:35;;;;;;;5.27;2.07;;;10.80;99.90;;;;;;4942881;29;20456;-77
2022/05/30 03:51:05;;;;;;;4.60;2.10;;;10.80;99.90;;;;;;4941202;29;20577;-72
2022/05/30 03:53:33;;;;;;;3.43;1.60;;;10.90;99.90;;;;;;4940914;28;20984;-74
2022/05/30 03:56:01;;;;;;;10.10;3.40;;;10.90;99.90;;;;;;4941232;28;20892;-74
2022/05/30 03:58:28;;;;;;;6.63;2.33;;;10.90;99.90;;;;;;4941362;28;20459;-74
2022/05/30 04:00:58;;;;;;;3.93;1.90;;;11.00;99.90;;;;;;4940921;29;20476;-73
2022/05/30 04:03:25;;;;;;;4.53;1.67;;;11.00;99.90;;;;;;4940737;29;20449;-76
2022/05/30 04:05:53;;;;;;;4.40;2.27;;;11.00;99.90;;;;;;4940552;29;20449;-75
2022/05/30 04:08:21;;;;;;;7.43;2.30;;;11.10;99.90;;;;;;4941356;28;20617;-74
2022/05/30 04:10:49;;;;;;;6.90;1.43;;;11.10;99.90;;;;;;4942096;28;20457;-74
2022/05/30 04:13:17;;;;;;;3.33;1.83;;;11.20;99.90;;;;;;4930607;28;20765;-76
2022/05/30 04:15:44;;;;;;;12.50;2.70;;;11.20;99.90;;;;;;4938176;29;20445;-79
2022/05/30 04:18:14;;;;;;;7.23;1.77;;;11.20;99.90;;;;;;4924612;29;20465;-78
2022/05/30 04:20:42;;;;;;;5.77;2.00;;;11.20;99.90;;;;;;4925238;29;20482;-76
2022/05/30 04:23:09;;;;;;;4.40;1.60;;;11.20;99.90;;;;;;4929227;29;20476;-77
2022/05/30 04:25:37;;;;;;;3.93;1.80;;;11.30;99.90;;;;;;4938350;29;20467;-77
2022/05/30 04:28:06;;;;;;;9.33;1.90;;;11.30;99.90;;;;;;4922185;29;20528;-77
2022/05/30 04:30:34;;;;;;;4.93;2.20;;;11.30;99.90;;;;;;4921267;29;20791;-74
2022/05/30 04:33:02;;;;;;;5.07;1.90;;;11.30;99.90;;;;;;4920825;29;20446;-75
2022/05/30 04:35:31;;;;;;;4.00;1.33;;;11.40;99.90;;;;;;4921166;29;20441;-75
2022/05/30 04:37:59;;;;;;;5.83;2.23;;;11.40;99.90;;;;;;4921292;29;20765;-74
2022/05/30 04:40:26;;;;;;;3.90;1.60;;;11.40;99.90;;;;;;4935732;29;20476;-73
2022/05/30 04:42:57;;;;;;;5.30;2.30;;;11.40;99.90;;;;;;4928933;29;20559;-74
2022/05/30 04:45:25;;;;;;;3.43;1.90;;;11.40;99.90;;;;;;4939941;29;20567;-72
2022/05/30 04:47:52;;;;;;;6.37;2.37;;;11.40;99.90;;;;;;4941123;28;20460;-75
2022/05/30 04:50:20;;;;;;;4.10;2.50;;;11.50;99.90;;;;;;4924081;29;20896;-73
2022/05/30 04:52:50;;;;;;;2.93;1.90;;;11.50;99.90;;;;;;4920941;29;20476;-74
2022/05/30 04:55:19;;;;;;;6.20;1.60;;;11.60;99.90;;;;;;4920546;29;20476;-77
2022/05/30 04:57:48;;;;;;;7.37;3.20;;;11.70;99.90;;;;;;4932185;29;20464;-76
2022/05/30 05:00:19;;;;;;;5.23;2.17;;;11.70;99.90;;;;;;4924490;29;20504;-73
2022/05/30 05:02:47;;;;;;;4.10;2.10;;;11.70;99.90;;;;;;4939882;28;20550;-77
2022/05/30 05:05:15;;;;;;;10.67;2.33;;;11.70;99.90;;;;;;4932603;29;20740;-76
2022/05/30 05:07:49;;;;;;;4.17;1.90;;;11.60;99.90;;;;;;4921342;29;20422;-78
2022/05/30 05:10:35;;;;;;;9.40;2.23;;;11.70;99.90;;;;;;4921188;29;20521;-77
2022/05/30 05:13:03;;;;;;;9.13;2.70;;;11.70;99.90;;;;;;4920946;29;20532;-77
2022/05/30 05:15:31;;;;;;;4.50;2.10;;;11.70;99.90;;;;;;4921775;29;20449;-75
2022/05/30 05:17:59;;;;;;;6.67;2.50;;;11.80;99.90;;;;;;4940692;28;20609;-77
2022/05/30 05:20:28;;;;;;;11.20;2.63;;;11.80;99.90;;;;;;4940106;29;20480;-77
2022/05/30 05:22:55;;;;;;;4.60;2.27;;;11.90;99.90;;;;;;4940452;28;20459;-77
2022/05/30 05:25:23;;;;;;;5.43;2.77;;;11.80;99.90;;;;;;4940374;29;20986;-77
2022/05/30 05:27:52;;;;;;;4.10;2.60;;;11.90;99.90;;;;;;4939546;28;20551;-77
2022/05/30 05:30:20;;;;;;;7.70;2.80;;;12.00;99.90;;;;;;4935993;29;20451;-77
2022/05/30 05:32:48;;;;;;;7.47;2.13;;;12.00;99.90;;;;;;4931435;29;20476;-72
2022/05/30 05:35:16;;;;;;;7.23;2.87;;;12.10;99.90;;;;;;4939295;29;20451;-72
2022/05/30 05:37:44;;;;;;;7.27;2.07;;;12.20;99.90;;;;;;4937088;28;20459;-73
2022/05/30 05:40:12;;;;;;;6.20;2.50;;;12.30;99.90;;;;;;4938501;28;20595;-71
2022/05/30 05:42:40;;;;;;;6.83;3.00;;;12.30;99.90;;;;;;4928186;28;20478;-71
2022/05/30 05:45:11;;;;;;;4.40;2.57;;;12.30;99.90;;;;;;4924150;29;20759;-69
2022/05/30 05:47:38;;;;;;;8.50;2.07;;;12.30;99.90;;;;;;4943045;29;20781;-69
2022/05/30 05:50:07;;;;;;;8.53;3.27;;;12.40;99.90;;;;;;4930571;29;20605;-72
2022/05/30 05:52:35;;;;;;;5.30;2.53;;;12.50;99.90;;;;;;4930462;29;20549;-68
2022/05/30 05:55:04;;;;;;;5.87;2.10;;;12.50;99.90;;;;;;4934631;28;20456;-69
2022/05/30 05:57:32;;;;;;;3.90;2.53;;;12.50;99.90;;;;;;4928068;29;20449;-69
2022/05/30 06:00:00;;;;;;;5.50;1.97;;;12.50;99.90;;;;;;4941273;29;20489;-70
2022/05/30 06:02:30;;;;;;;5.10;2.60;;;12.50;99.90;;;;;;4927852;29;20514;-70
2022/05/30 06:04:58;;;;;;;4.80;2.67;;;12.60;99.90;;;;;;4935998;29;20742;-69
2022/05/30 06:07:26;;;;;;;5.53;2.90;;;12.60;99.90;;;;;;4937032;28;20453;-71
2022/05/30 06:09:53;;;;;;;2.20;1.97;;;12.70;99.90;;;;;;4937492;28;20999;-71
2022/05/30 06:12:21;;;;;;;8.00;3.30;;;12.70;99.90;;;;;;4927418;29;20469;-70
2022/05/30 06:14:49;;;;;;;8.53;2.60;;;12.80;99.90;;;;;;4925816;29;20441;-71
2022/05/30 06:17:17;;;;;;;5.10;2.73;;;12.70;99.90;;;;;;4939937;29;20448;-71
2022/05/30 06:19:48;;;;;;;3.90;1.83;;;12.70;99.90;;;;;;4939933;28;20731;-71
2022/05/30 06:22:16;;;;;;;4.60;3.03;;;12.60;99.90;;;;;;4937734;29;20524;-69
2022/05/30 06:24:44;;;;;;;7.80;2.50;;;12.50;99.90;;;;;;4936203;29;20716;-69
2022/05/30 06:27:17;;;;;;;5.73;2.80;;;12.60;99.90;;;;;;4930945;28;20469;-69
2022/05/30 06:29:45;;;;;;;6.47;2.17;;;12.60;99.90;;;;;;4936749;29;20999;-71
2022/05/30 06:32:13;;;;;;;6.53;2.70;;;12.60;99.90;;;;;;4937009;29;20472;-78
2022/05/30 06:34:41;;;;;;;10.03;3.33;;;12.70;99.90;;;;;;4942636;28;20828;-67
2022/05/30 06:37:10;;;;;;;4.40;2.53;;;12.70;99.90;;;;;;4933608;28;21102;-68
2022/05/30 06:39:39;;;;;;;2.40;2.20;;;12.60;99.90;;;;;;4933393;29;20449;-68
2022/05/30 06:42:09;;;;;;;2.90;2.00;;;12.60;99.90;;;;;;4934990;29;21017;-68
2022/05/30 06:44:37;;;;;;;3.20;1.80;;;12.60;99.90;;;;;;4930714;28;21052;-67
2022/05/30 06:47:07;;;;;;;3.33;1.77;;;12.60;99.90;;;;;;4930800;28;20492;-68
2022/05/30 06:49:35;;;;;;;6.70;2.63;;;12.60;99.90;;;;;;4923135;29;20548;-68
2022/05/30 06:52:03;;;;;;;2.40;1.90;;;12.50;99.90;;;;;;4922755;29;20500;-68
2022/05/30 06:54:33;;;;;;;11.50;3.80;;;12.50;99.90;;;;;;4922681;29;20735;-68
2022/05/30 06:59:46;;;;;;;6.53;2.10;;;12.50;99.90;;;;;;4922596;29;20488;-68
2022/05/30 07:02:18;;;;;;;9.83;3.00;;;12.40;99.90;;;;;;4922715;29;20485;-67
2022/05/30 07:04:45;;;;;;;4.83;2.10;;;12.30;99.90;;;;;;4922649;29;20452;-66
2022/05/30 07:07:13;;;;;;;4.53;2.10;;;12.20;99.90;;;;;;4922110;29;20998;-67
2022/05/30 07:09:43;;;;;;;3.77;1.77;;;12.20;99.90;;;;;;4930990;28;20483;-67
2022/05/30 07:12:11;;;;;;;7.20;1.97;;;12.10;99.90;;;;;;4940124;29;20840;-66
2022/05/30 07:14:39;;;;;;;4.40;2.37;;;12.10;99.90;;;;;;4939595;29;20941;-66
2022/05/30 07:17:07;;;;;;;5.63;1.90;;;12.10;99.90;;;;;;4928694;29;20459;-74
2022/05/30 07:19:35;;;;;;;3.47;2.00;;;12.10;99.90;;;;;;4935574;28;20472;-72
2022/05/30 07:22:04;;;;;;;2.03;1.80;;;12.10;99.90;;;;;;4938879;28;20564;-70
2022/05/30 07:24:32;;;;;;;6.13;2.00;;;12.20;99.90;;;;;;4935133;28;20836;-70
2022/05/30 07:27:01;;;;;;;4.10;1.37;;;12.20;99.90;;;;;;4929780;29;20452;-68
2022/05/30 07:29:29;;;;;;;4.33;2.00;;;12.30;99.90;;;;;;4936491;28;21056;-67
2022/05/30 07:31:59;;;;;;;4.70;1.63;;;12.30;99.90;;;;;;4941033;28;21230;-67
2022/05/30 07:34:28;;;;;;;3.57;2.27;;;12.40;99.90;;;;;;4935902;28;20461;-66
2022/05/30 07:36:56;;;;;;;7.93;2.13;;;12.50;99.90;;;;;;4923325;28;20452;-66
2022/05/30 07:39:23;;;;;;;10.53;1.93;;;12.70;99.90;;;;;;4922076;29;20735;-65
2022/05/30 07:41:53;;;;;;;6.97;2.27;;;12.70;99.90;;;;;;4923461;29;20477;-66
2022/05/30 07:44:24;;;;;;;3.20;1.37;;;12.80;99.90;;;;;;4925157;28;20621;-67
2022/05/30 07:46:52;;;;;;;6.47;3.33;;;12.90;99.90;;;;;;4935324;29;20625;-67
2022/05/30 07:49:26;;;;;;;6.07;1.80;;;12.90;99.90;;;;;;4939794;29;20757;-67
2022/05/30 07:51:54;;;;;;;5.90;1.80;;;12.90;99.90;;;;;;4934184;29;20477;-67
2022/05/30 07:54:23;;;;;;;2.80;1.80;;;12.90;99.90;;;;;;4931763;29;20456;-66
2022/05/30 07:56:51;;;;;;;4.97;1.70;;;12.90;99.90;;;;;;4941584;29;20556;-66
2022/05/30 07:59:55;;;;;;;6.53;1.47;;;12.80;99.90;;;;;;4941954;29;20453;-67
2022/05/30 08:02:22;;;;;;;5.77;1.57;;;12.60;99.90;;;;;;4942994;29;20979;-67
2022/05/30 08:04:50;;;;;;;5.00;2.00;;;12.50;99.90;;;;;;4922590;29;20487;-69
2022/05/30 08:07:18;;;;;;;5.60;1.80;;;12.40;99.90;;;;;;4925787;29;20588;-72
2022/05/30 08:09:46;;;;;;;3.27;2.10;;;12.20;99.90;;;;;;4939414;28;20608;-72
2022/05/30 08:12:13;;;;;;;3.20;3.00;;;12.20;99.90;;;;;;4932339;29;20480;-70
2022/05/30 08:14:41;;;;;;;4.70;2.20;;;12.10;99.90;;;;;;4920890;29;20638;-71
2022/05/30 08:17:10;;;;;;;7.67;3.17;;;12.00;99.90;;;;;;4932159;29;20454;-70
2022/05/30 08:19:40;;;;;;;4.43;2.20;;;11.90;99.90;;;;;;4923014;29;20593;-72
2022/05/30 08:22:16;;;;;;;2.93;2.73;;;11.90;99.90;;;;;;4926866;29;21016;-73
2022/05/30 08:24:47;;;;;;;5.90;2.67;;;11.90;99.90;;;;;;4926597;29;20656;-72
2022/05/30 08:27:16;;;;;;;2.53;2.33;;;11.80;99.90;;;;;;4929053;29;20449;-72
2022/05/30 08:29:44;;;;;;;6.70;2.50;;;11.80;99.90;;;;;;4936003;28;20560;-72
2022/05/30 08:32:14;;;;;;;5.07;2.50;;;11.80;99.90;;;;;;4920277;29;20544;-72
2022/05/30 08:34:42;;;;;;;3.40;2.17;;;11.80;99.90;;;;;;4920408;29;20552;-72
2022/05/30 08:37:10;;;;;;;3.43;2.00;;;11.80;99.90;;;;;;4931290;29;20459;-72
2022/05/30 08:42:31;;;;;;;4.77;1.90;;;11.90;99.90;;;;;;4926370;29;20503;-69
2022/05/30 08:45:03;;;;;;;2.90;1.50;;;12.00;99.90;;;;;;4924454;28;21089;-69
2022/05/30 08:47:45;;;;;;;3.60;1.60;;;12.10;99.90;;;;;;4930630;29;20484;-69
2022/05/30 08:50:22;;;;;;;4.13;2.00;;;12.20;99.90;;;;;;4919829;29;20463;-70
2022/05/30 08:53:18;;;;;;;5.10;2.30;;;12.30;99.90;;;;;;4920051;29;20457;-70
2022/05/30 08:55:51;;;;;;;4.53;2.10;;;12.40;99.90;;;;;;4920096;29;20536;-70
2022/05/30 08:58:37;;;;;;;2.83;1.90;;;12.50;99.90;;;;;;4920758;29;20561;-70
2022/05/30 09:01:09;;;;;;;2.90;2.20;;;12.50;99.90;;;;;;4929067;29;20495;-70
2022/05/30 09:03:43;;;;;;;3.93;2.00;;;12.70;99.90;;;;;;4924896;29;20611;-70
2022/05/30 09:06:21;;;;;;;2.30;2.10;;;12.80;99.90;;;;;;4928540;29;20464;-72
2022/05/30 09:08:53;;;;;;;4.73;1.83;;;13.10;99.90;;;;;;4935027;29;20857;-68
2022/05/30 09:11:28;;;;;;;5.03;2.90;;;13.30;99.90;;;;;;4931979;28;20527;-65
2022/05/30 09:14:00;;;;;;;4.10;2.90;;;13.60;99.90;;;;;;4931941;29;20445;-65
2022/05/30 09:16:37;;;;;;;2.23;2.10;;;13.80;99.90;;;;;;4935542;28;20535;-65
2022/05/30 09:19:10;;;;;;;2.30;2.20;;;14.10;99.90;;;;;;4939253;28;20531;-65
2022/05/30 09:21:38;;;;;;;3.63;2.77;;;14.40;99.90;;;;;;4942511;29;21134;-68
2022/05/30 09:24:06;;;;;;;2.83;2.30;;;14.60;99.90;;;;;;4943220;28;20451;-68
2022/05/30 09:26:38;;;;;;;2.77;2.30;;;14.80;99.90;;;;;;4941775;29;20583;-65
2022/05/30 09:29:18;;;;;;;3.73;2.23;;;14.80;99.90;;;;;;4924160;29;20454;-67
2022/05/30 09:31:53;;;;;;;3.00;2.10;;;14.70;99.90;;;;;;4936811;29;20476;-68
2022/05/30 09:34:39;;;;;;;3.53;2.30;;;14.50;99.90;;;;;;4927255;29;20621;-67
2022/05/30 09:37:07;;;;;;;2.43;2.20;;;14.20;99.90;;;;;;4937888;29;20456;-69
2022/05/30 09:39:47;;;;;;;4.90;2.17;;;13.80;99.90;;;;;;4930247;29;20716;-69
2022/05/30 09:42:28;;;;;;;2.63;1.80;;;13.40;99.90;;;;;;4926156;29;20524;-67
2022/05/30 09:44:59;;;;;;;2.70;2.00;;;13.00;99.90;;;;;;4923871;29;20453;-69
2022/05/30 09:47:27;;;;;;;3.40;1.77;;;12.60;99.90;;;;;;4931037;29;20456;-72
2022/05/30 09:49:56;;;;;;;1.97;1.77;;;12.30;99.90;;;;;;4929692;29;20444;-69
2022/05/30 09:52:36;;;;;;;1.90;1.80;;;12.10;99.90;;;;;;4933782;28;20693;-69
2022/05/30 09:55:24;;;;;;;7.10;1.93;;;12.00;99.90;;;;;;4932745;29;20756;-66
2022/05/30 09:57:58;;;;;;;3.37;2.07;;;11.90;99.90;;;;;;4923727;29;20457;-64
2022/05/30 10:00:37;;;;;;;3.40;2.10;;;11.90;99.90;;;;;;4931762;28;20524;-63
2022/05/30 10:03:11;;;;;;;5.30;2.27;;;11.80;99.90;;;;;;4937419;29;20495;-64
2022/05/30 10:05:41;;;;;;;3.40;1.97;;;11.80;99.90;;;;;;4922665;29;21019;-65
2022/05/30 10:08:26;;;;;;;7.30;2.67;;;11.80;99.90;;;;;;4935976;29;20981;-64
2022/05/30 10:10:56;;;;;;;1.93;1.80;;;11.90;99.90;;;;;;4928964;29;20491;-66
2022/05/30 10:13:35;;;;;;;3.03;1.60;;;12.00;99.90;;;;;;4934184;29;20701;-67
2022/05/30 10:16:05;;;;;;;1.97;1.83;;;12.00;99.90;;;;;;4931315;29;20477;-68
2022/05/30 10:18:36;;;;;;;1.87;1.77;;;12.10;99.90;;;;;;4930755;29;20494;-68
2022/05/30 10:21:22;;;;;;;2.43;1.77;;;12.20;99.90;;;;;;4931269;29;20507;-67
2022/05/30 10:30:10;;;;;;;4.93;1.93;;;12.50;99.90;;;;;;4931110;29;20547;-67
2022/05/30 10:32:48;;;;;;;2.63;1.70;;;12.60;99.90;;;;;;4936671;28;20861;-68
2022/05/30 10:35:24;;;;;;;6.23;2.10;;;12.70;99.90;;;;;;4937695;29;20837;-68
2022/05/30 10:38:12;;;;;;;3.50;2.23;;;12.90;99.90;;;;;;4928664;29;20528;-66
2022/05/30 10:41:03;;;;;;;4.00;1.90;;;13.10;99.90;;;;;;4924670;29;20465;-67
2022/05/30 10:43:47;;;;;;;1.53;1.43;;;13.30;99.90;;;;;;4927623;29;20477;-67
2022/05/30 10:46:20;;;;;;;3.33;2.27;;;13.40;99.90;;;;;;4926745;29;21039;-69
2022/05/30 10:48:57;;;;;;;3.50;1.80;;;13.70;99.90;;;;;;4931674;29;20472;-69
2022/05/30 10:51:29;;;;;;;2.43;2.07;;;13.90;99.90;;;;;;4943262;29;20479;-68
2022/05/30 10:54:02;;;;;;;2.23;1.63;;;14.10;99.90;;;;;;4937892;28;21087;-67
2022/05/30 10:56:33;;;;;;;1.43;1.33;;;14.20;99.90;;;;;;4922523;29;20867;-68
2022/05/30 10:59:15;;;;;;;1.83;1.33;;;14.50;99.90;;;;;;4934887;29;20457;-67
2022/05/30 11:01:47;;;;;;;1.43;1.10;;;14.70;99.90;;;;;;4927923;28;20473;-68
2022/05/30 11:04:39;;;;;;;1.40;1.30;;;14.90;99.90;;;;;;4924137;28;20500;-68
2022/05/30 11:07:30;;;;;;;2.20;1.27;;;15.20;99.90;;;;;;4933720;29;21019;-67
2022/05/30 11:10:07;;;;;;;2.37;1.33;;;15.50;99.90;;;;;;4920995;29;21127;-67
2022/05/30 11:12:40;;;;;;;1.93;1.40;;;15.80;99.90;;;;;;4924210;28;21190;-67
2022/05/30 11:15:14;;;;;;;2.07;1.53;;;16.00;99.90;;;;;;4922067;29;20595;-70
2022/05/30 11:18:09;;;;;;;2.60;1.30;;;16.10;99.90;;;;;;4933157;28;20454;-68
2022/05/30 11:20:42;;;;;;;1.80;1.57;;;16.20;99.90;;;;;;4935490;29;20604;-68
2022/05/30 11:23:11;;;;;;;1.60;1.50;;;16.20;99.90;;;;;;4925187;28;20490;-68
2022/05/30 11:26:14;;;;;;;1.47;1.30;;;16.30;99.90;;;;;;4941040;28;20579;-68
2022/05/30 11:29:03;;;;;;;3.77;1.10;;;16.30;99.90;;;;;;4938665;29;20543;-68
2022/05/30 11:31:37;;;;;;;2.37;1.20;;;16.40;99.90;;;;;;4935908;29;20468;-68
2022/05/30 11:34:14;;;;;;;1.67;1.00;;;16.40;99.90;;;;;;4926777;29;20445;-70
2022/05/30 11:37:18;;;;;;;1.93;1.00;;;16.60;99.90;;;;;;4921984;29;20933;-69
2022/05/30 11:40:02;;;;;;;1.33;0.60;;;16.60;99.90;;;;;;4939821;29;20448;-68
2022/05/30 11:42:46;;;;;;;3.30;1.57;;;16.70;99.90;;;;;;4940254;28;21074;-68
2022/05/30 11:45:30;;;;;;;0.77;0.57;;;16.70;99.90;;;;;;4927614;29;20844;-68
2022/05/30 11:48:07;;;;;;;1.33;0.63;;;16.80;99.90;;;;;;4921609;29;20804;-66
2022/05/30 11:50:37;;;;;;;0.50;0.40;;;16.70;99.90;;;;;;4925095;29;20547;-68
2022/05/30 11:53:49;;;;;;;1.10;1.00;;;16.70;99.90;;;;;;4923053;29;20860;-69
2022/05/30 11:56:25;;;;;;;1.63;1.53;;;16.50;99.90;;;;;;4928052;28;20461;-69
2022/05/30 11:59:21;;;;;;;1.80;1.70;;;16.00;99.90;;;;;;4919976;29;20751;-69
2022/05/30 12:01:54;;;;;;;2.77;1.57;;;15.60;99.90;;;;;;4922956;29;20464;-69
2022/05/30 12:04:55;;;;;;;2.00;1.90;;;15.20;99.90;;;;;;4939129;29;20801;-68
2022/05/30 12:07:38;;;;;;;2.20;1.90;;;14.90;99.90;;;;;;4939896;29;20453;-69
2022/05/30 12:10:23;;;;;;;2.10;1.57;;;14.50;99.90;;;;;;4937510;28;20567;-69
2022/05/30 12:13:08;;;;;;;2.60;2.40;;;14.30;99.90;;;;;;4936754;29;20473;-69
2022/05/30 12:16:08;;;;;;;2.60;2.40;;;14.10;99.90;;;;;;4931372;29;20713;-68
2022/05/30 12:24:34;;;;;;;2.13;1.93;;;13.70;99.90;;;;;;4931980;29;20511;-69
2022/05/30 12:27:21;;;;;;;2.93;1.53;;;13.70;99.90;;;;;;4927298;29;20556;-68
2022/05/30 12:29:53;;;;;;;8.13;2.57;;;13.60;99.90;;;;;;4927062;28;20480;-71
2022/05/30 12:32:38;;;;;;;3.47;2.47;;;13.40;99.90;;;;;;4930509;29;21042;-65
2022/05/30 12:35:21;;;;;;;2.00;1.90;;;13.40;99.90;;;;;;4923538;29;20445;-65
2022/05/30 12:37:52;;;;;;;2.67;2.40;;;13.50;99.90;;;;;;4930933;29;20489;-69
2022/05/30 12:40:34;;;;;;;2.17;1.83;;;13.40;99.90;;;;;;4929765;29;20479;-69
2022/05/30 12:43:13;;;;;;;2.50;1.77;;;13.40;99.90;;;;;;4921061;29;20983;-69
2022/05/30 12:45:46;;;;;;;3.60;2.40;;;13.50;99.90;;;;;;4927844;29;20458;-69
2022/05/30 12:48:23;;;;;;;3.20;2.97;;;13.60;99.90;;;;;;4921669;29;20553;-64
2022/05/30 12:51:21;;;;;;;2.50;2.30;;;13.70;99.90;;;;;;4938723;29;20468;-65
2022/05/30 12:54:21;;;;;;;3.90;2.43;;;14.00;99.90;;;;;;4887286;29;20456;-64
2022/05/30 12:57:09;;;;;;;3.10;2.63;;;14.20;99.90;;;;;;4934327;29;20464;-65
2022/05/30 13:00:04;;;;;;;2.50;2.30;;;14.40;99.90;;;;;;4927028;29;20539;-64
2022/05/30 13:02:54;;;;;;;2.80;2.10;;;14.60;99.90;;;;;;4923298;29;21074;-64
2022/05/30 13:05:27;;;;;;;3.87;1.93;;;14.60;99.90;;;;;;4930689;28;20556;-65
2022/05/30 13:07:55;;;;;;;2.77;2.37;;;14.60;99.90;;;;;;4923800;29;20876;-64
2022/05/30 13:10:23;;;;;;;2.17;2.07;;;14.50;99.90;;;;;;4922882;29;20465;-65
2022/05/30 13:13:03;;;;;;;2.27;2.10;;;14.50;99.90;;;;;;4935077;29;20547;-65
2022/05/30 13:15:41;;;;;;;2.73;1.90;;;14.50;99.90;;;;;;4921687;29;20446;-64
2022/05/30 13:18:17;;;;;;;1.93;1.83;;;14.60;99.90;;;;;;4920298;29;20582;-66
2022/05/30 13:20:49;;;;;;;2.70;2.13;;;14.60;99.90;;;;;;4938292;29;20847;-66
2022/05/30 13:23:28;;;;;;;5.17;2.20;;;14.50;99.90;;;;;;4934360;29;20461;-65
2022/05/30 13:25:56;;;;;;;1.90;1.80;;;14.50;99.90;;;;;;4925715;29;20827;-65
2022/05/30 13:28:27;;;;;;;3.00;1.70;;;14.40;99.90;;;;;;4922432;29;20612;-65
2022/05/30 13:30:56;;;;;;;1.70;1.53;;;14.40;99.90;;;;;;4929066;29;20481;-66
2022/05/30 13:33:28;;;;;;;2.20;1.50;;;14.40;99.90;;;;;;4926432;29;20736;-64
2022/05/30 13:35:59;;;;;;;2.13;1.57;;;14.40;99.90;;;;;;4931300;28;20473;-66
2022/05/30 13:38:32;;;;;;;0.83;0.83;;;14.40;99.90;;;;;;4928646;29;20818;-66